Time;durP1;ratioP1;P1;durP2;ratioP2;P2;SDS_P1;SDS_P2;PMS_P1;PMS_P2;Temp;Humidity;BMP_temperature;BMP_pressure;BME280_temperature;BME280_humidity;BME280_pressure;Samples;Min_cycle;Max_cycle;Signal;HPM_P1;HPM_P2
2022/12/02 00:01:21;;;;;;;30.10;22.20;;;6.50;99.90;;;;;;5012438;28;20413;-73
2022/12/02 00:03:47;;;;;;;27.90;20.23;;;6.50;99.90;;;;;;5011765;28;20450;-74
2022/12/02 00:06:32;;;;;;;27.23;20.17;;;6.30;99.90;;;;;;5012413;28;20399;-73
2022/12/02 00:09:32;;;;;;;26.70;20.30;;;6.40;99.90;;;;;;5012326;28;20418;-73
2022/12/02 00:12:10;;;;;;;29.00;20.53;;;6.30;99.90;;;;;;5011461;28;20505;-73
2022/12/02 00:14:37;;;;;;;28.80;21.53;;;6.30;99.90;;;;;;5012121;28;20399;-73
2022/12/02 00:17:03;;;;;;;29.80;20.57;;;6.40;99.90;;;;;;5011665;28;20434;-73
2022/12/02 00:19:28;;;;;;;31.67;22.97;;;6.50;99.90;;;;;;5012068;28;20794;-73
2022/12/02 00:21:54;;;;;;;28.67;21.30;;;6.60;99.90;;;;;;5013364;28;20195;-73
2022/12/02 00:24:19;;;;;;;31.70;22.73;;;6.70;99.90;;;;;;5012638;28;20672;-73
2022/12/02 00:26:46;;;;;;;29.10;20.60;;;6.60;99.90;;;;;;5013016;28;20167;-73
2022/12/02 00:29:11;;;;;;;28.23;21.10;;;6.80;99.90;;;;;;5011732;28;20295;-73
2022/12/02 00:31:37;;;;;;;26.00;20.40;;;6.80;99.90;;;;;;5012500;28;20400;-74
2022/12/02 00:34:03;;;;;;;26.77;20.30;;;6.80;99.90;;;;;;5012366;28;20259;-74
2022/12/02 00:36:29;;;;;;;26.20;20.33;;;6.60;99.90;;;;;;5012765;28;20170;-73
2022/12/02 00:38:56;;;;;;;29.10;21.57;;;6.20;99.90;;;;;;5010974;28;20495;-73
2022/12/02 00:41:22;;;;;;;25.27;19.73;;;6.20;99.90;;;;;;5012355;28;20407;-73
2022/12/02 00:46:33;;;;;;;29.27;21.97;;;6.50;99.90;;;;;;5013575;28;20445;-73
2022/12/02 00:49:07;;;;;;;31.87;23.37;;;6.40;99.90;;;;;;5015847;28;20432;-73
2022/12/02 00:51:34;;;;;;;27.50;21.77;;;6.40;99.90;;;;;;5016461;28;20757;-73
2022/12/02 00:54:00;;;;;;;27.37;21.70;;;6.30;99.90;;;;;;5016281;28;20546;-73
2022/12/02 00:56:26;;;;;;;29.10;20.53;;;6.40;99.90;;;;;;5015892;28;20947;-73
2022/12/02 00:58:51;;;;;;;30.13;22.90;;;6.40;99.90;;;;;;5015412;28;20447;-73
2022/12/02 01:01:17;;;;;;;28.30;21.37;;;6.10;99.90;;;;;;5015891;28;20175;-73
2022/12/02 01:03:43;;;;;;;30.67;22.00;;;6.20;99.90;;;;;;5015429;28;20208;-73
2022/12/02 01:06:09;;;;;;;29.53;21.10;;;6.30;99.90;;;;;;5015660;28;20411;-73
2022/12/02 01:08:34;;;;;;;27.80;20.50;;;6.40;99.90;;;;;;5014611;28;20271;-73
2022/12/02 01:11:00;;;;;;;27.37;21.20;;;6.40;99.90;;;;;;5015473;28;20172;-73
2022/12/02 01:13:26;;;;;;;29.33;21.43;;;6.40;99.90;;;;;;5015742;28;20173;-74
2022/12/02 01:15:53;;;;;;;29.43;22.20;;;6.40;99.90;;;;;;5015832;28;20260;-74
2022/12/02 01:18:19;;;;;;;29.90;21.20;;;6.50;99.90;;;;;;5015902;28;20442;-73
2022/12/02 01:20:45;;;;;;;33.03;23.47;;;6.30;99.90;;;;;;5015538;28;20408;-73
2022/12/02 01:23:11;;;;;;;30.80;22.60;;;6.30;99.90;;;;;;5014766;28;20539;-73
2022/12/02 01:25:36;;;;;;;29.80;21.17;;;6.20;99.90;;;;;;5015341;28;20507;-73
2022/12/02 01:28:02;;;;;;;28.83;20.83;;;6.30;99.90;;;;;;5014877;28;20171;-73
2022/12/02 01:30:28;;;;;;;32.03;21.60;;;6.30;99.90;;;;;;5013931;28;20173;-73
2022/12/02 01:32:54;;;;;;;27.17;20.80;;;6.50;99.90;;;;;;5015148;28;20410;-73
2022/12/02 01:35:20;;;;;;;33.17;23.00;;;6.50;99.90;;;;;;5015306;28;20962;-73
2022/12/02 01:37:46;;;;;;;29.67;21.07;;;6.30;99.90;;;;;;5014758;28;20634;-73
2022/12/02 01:40:12;;;;;;;26.90;19.60;;;6.30;99.90;;;;;;5014503;28;20454;-72
2022/12/02 01:42:38;;;;;;;33.10;21.60;;;6.20;99.90;;;;;;5015024;28;20197;-73
2022/12/02 01:45:06;;;;;;;28.93;21.60;;;6.30;99.90;;;;;;5013791;28;20824;-73
2022/12/02 01:47:32;;;;;;;28.27;21.07;;;6.20;99.90;;;;;;5015121;28;20404;-72
2022/12/02 01:49:57;;;;;;;29.03;21.30;;;6.30;99.90;;;;;;5014972;28;20427;-73
2022/12/02 01:52:24;;;;;;;30.00;22.63;;;6.20;99.90;;;;;;5015068;28;20748;-72
2022/12/02 01:54:50;;;;;;;26.53;20.17;;;6.30;99.90;;;;;;5015299;28;20644;-73
2022/12/02 01:57:18;;;;;;;33.17;23.83;;;6.30;99.90;;;;;;5015536;28;20967;-73
2022/12/02 01:59:43;;;;;;;34.33;22.60;;;6.20;99.90;;;;;;5014402;28;20510;-73
2022/12/02 02:02:34;;;;;;;29.13;21.07;;;6.20;99.90;;;;;;5015665;28;20494;-73
2022/12/02 02:05:03;;;;;;;32.93;20.80;;;6.20;99.90;;;;;;5015717;28;20322;-73
2022/12/02 02:07:30;;;;;;;29.63;22.37;;;6.20;99.90;;;;;;5014981;28;20498;-73
2022/12/02 02:09:56;;;;;;;34.03;22.83;;;6.30;99.90;;;;;;5014089;28;20431;-72
2022/12/02 02:12:23;;;;;;;31.20;22.97;;;6.40;99.90;;;;;;5014836;28;20407;-73
2022/12/02 02:14:49;;;;;;;26.43;20.03;;;6.60;99.90;;;;;;5014633;28;20455;-72
2022/12/02 02:17:15;;;;;;;28.00;21.10;;;6.50;99.90;;;;;;5014892;28;20410;-73
2022/12/02 02:19:42;;;;;;;31.17;21.47;;;6.30;99.90;;;;;;5014818;28;20519;-73
2022/12/02 02:22:13;;;;;;;27.10;20.03;;;6.40;99.90;;;;;;5015034;28;20412;-73
2022/12/02 02:24:38;;;;;;;32.17;21.10;;;6.10;99.90;;;;;;5014309;28;20435;-73
2022/12/02 02:27:04;;;;;;;26.33;19.47;;;6.10;99.90;;;;;;5011686;28;20436;-73
2022/12/02 02:29:30;;;;;;;28.43;21.07;;;6.10;99.90;;;;;;5006376;28;20251;-73
2022/12/02 02:31:55;;;;;;;30.30;21.77;;;6.40;99.90;;;;;;5015835;28;20656;-73
2022/12/02 02:34:21;;;;;;;29.30;21.50;;;6.50;99.90;;;;;;5015657;28;20561;-73
2022/12/02 02:36:47;;;;;;;32.33;22.73;;;6.50;99.90;;;;;;5015027;28;20306;-73
2022/12/02 02:39:12;;;;;;;31.13;22.90;;;6.40;99.90;;;;;;5014116;28;20208;-73
2022/12/02 02:41:38;;;;;;;29.03;21.00;;;6.20;99.90;;;;;;5015010;28;20537;-73
2022/12/02 02:44:04;;;;;;;25.03;20.70;;;6.10;99.90;;;;;;5014311;28;20621;-73
2022/12/02 02:46:30;;;;;;;31.73;23.80;;;6.20;99.90;;;;;;5014345;28;20564;-73
2022/12/02 02:48:56;;;;;;;30.43;20.93;;;6.10;99.90;;;;;;5013374;28;20423;-73
2022/12/02 02:51:22;;;;;;;28.63;20.80;;;6.10;99.90;;;;;;5014370;28;20403;-73
2022/12/02 02:53:48;;;;;;;36.10;24.60;;;6.00;99.90;;;;;;5014334;28;20405;-73
2022/12/02 02:56:14;;;;;;;33.97;24.33;;;6.00;99.90;;;;;;5014510;28;20172;-73
2022/12/02 02:58:40;;;;;;;32.17;22.50;;;6.10;99.90;;;;;;5014868;28;20467;-73
2022/12/02 03:01:21;;;;;;;34.10;24.67;;;6.30;99.90;;;;;;5015040;28;20183;-73
2022/12/02 03:03:55;;;;;;;30.87;22.60;;;6.30;99.90;;;;;;5017753;28;20194;-73
2022/12/02 03:06:23;;;;;;;29.17;20.50;;;6.40;99.90;;;;;;5028482;28;20742;-72
2022/12/02 03:08:50;;;;;;;38.23;26.00;;;6.40;99.90;;;;;;5027674;28;20424;-74
2022/12/02 03:11:16;;;;;;;28.20;20.60;;;6.30;99.90;;;;;;5025906;28;20415;-72
2022/12/02 03:13:45;;;;;;;29.20;20.70;;;6.10;99.90;;;;;;5027138;28;20475;-73
2022/12/02 03:16:13;;;;;;;28.87;21.33;;;6.20;99.90;;;;;;5026082;28;20431;-73
2022/12/02 03:18:40;;;;;;;33.50;23.20;;;6.30;99.90;;;;;;5025961;28;20427;-73
2022/12/02 03:21:07;;;;;;;37.57;23.33;;;6.40;99.90;;;;;;5025665;28;20410;-72
2022/12/02 03:23:33;;;;;;;30.13;22.83;;;6.30;99.90;;;;;;5026610;28;20509;-73
2022/12/02 03:26:00;;;;;;;33.97;24.20;;;6.50;99.90;;;;;;5025577;28;20576;-73
2022/12/02 03:28:26;;;;;;;31.50;22.00;;;6.40;99.90;;;;;;5016667;28;20454;-73
2022/12/02 03:30:52;;;;;;;29.97;21.77;;;6.30;99.90;;;;;;5013086;28;20441;-73
2022/12/02 03:33:18;;;;;;;30.13;22.07;;;6.30;99.90;;;;;;5013328;28;20641;-73
2022/12/02 03:35:43;;;;;;;27.07;20.90;;;6.50;99.90;;;;;;5013172;28;20176;-73
2022/12/02 03:38:09;;;;;;;31.83;21.37;;;6.40;99.90;;;;;;5013033;28;20477;-73
2022/12/02 03:40:35;;;;;;;27.10;20.10;;;6.40;99.90;;;;;;5011601;28;20458;-73
2022/12/02 03:45:29;;;;;;;35.37;22.30;;;6.30;99.90;;;;;;4987324;28;20973;-70
2022/12/02 03:47:55;;;;;;;30.87;22.33;;;6.40;99.90;;;;;;4994708;28;20400;-71
2022/12/02 03:50:21;;;;;;;32.20;22.90;;;6.50;99.90;;;;;;4993241;28;20219;-71
2022/12/02 03:52:47;;;;;;;31.80;22.23;;;6.50;99.90;;;;;;4994567;28;20232;-71
2022/12/02 03:55:13;;;;;;;31.07;21.57;;;6.50;99.90;;;;;;4994059;28;20455;-71
2022/12/02 03:57:41;;;;;;;28.80;20.90;;;6.50;99.90;;;;;;4993464;28;20442;-71
2022/12/02 04:00:08;;;;;;;33.77;23.80;;;6.50;99.90;;;;;;4993900;28;20436;-70
2022/12/02 04:02:33;;;;;;;29.30;21.27;;;6.40;99.90;;;;;;4992544;28;20462;-70
2022/12/02 04:04:59;;;;;;;29.50;23.10;;;6.30;99.90;;;;;;4993291;28;20930;-71
2022/12/02 04:07:24;;;;;;;28.60;21.53;;;6.30;99.90;;;;;;4993750;28;20177;-71
2022/12/02 04:09:50;;;;;;;27.60;20.43;;;6.40;99.90;;;;;;4993753;28;20637;-70
2022/12/02 04:12:15;;;;;;;30.07;20.10;;;6.60;99.90;;;;;;4992605;28;20208;-71
2022/12/02 04:14:41;;;;;;;35.00;23.80;;;6.70;99.90;;;;;;4993750;28;20194;-71
2022/12/02 04:17:06;;;;;;;27.60;19.53;;;6.70;99.90;;;;;;4993543;28;20209;-71
2022/12/02 04:19:32;;;;;;;32.60;22.17;;;6.70;99.90;;;;;;4993504;28;20178;-70
2022/12/02 04:21:57;;;;;;;31.20;20.90;;;6.80;99.90;;;;;;4995216;28;20177;-70
2022/12/02 04:24:23;;;;;;;26.70;19.83;;;6.80;99.90;;;;;;4997811;28;20214;-71
2022/12/02 04:26:49;;;;;;;27.90;20.37;;;6.70;99.90;;;;;;4997382;28;20167;-71
2022/12/02 04:29:14;;;;;;;29.90;20.53;;;6.40;99.90;;;;;;4997767;28;20171;-70
2022/12/02 04:31:40;;;;;;;30.17;22.10;;;6.40;99.90;;;;;;4997438;28;20173;-70
2022/12/02 04:34:05;;;;;;;29.10;21.23;;;6.40;99.90;;;;;;4997530;28;20255;-70
2022/12/02 04:36:31;;;;;;;30.73;21.00;;;6.30;99.90;;;;;;4997623;28;20205;-70
2022/12/02 04:38:57;;;;;;;28.37;20.93;;;6.20;99.90;;;;;;4996100;28;20638;-71
2022/12/02 04:41:22;;;;;;;26.87;21.60;;;6.10;99.90;;;;;;4995620;28;20272;-70
2022/12/02 04:43:48;;;;;;;32.23;22.60;;;6.10;99.90;;;;;;4997083;28;20219;-71
2022/12/02 04:46:14;;;;;;;34.70;24.10;;;6.00;99.90;;;;;;4997167;28;20171;-71
2022/12/02 04:48:39;;;;;;;28.07;20.97;;;6.00;99.90;;;;;;4996207;28;20443;-71
2022/12/02 04:51:05;;;;;;;30.20;21.33;;;6.10;99.90;;;;;;4997246;28;20179;-71
2022/12/02 04:53:30;;;;;;;29.57;20.97;;;6.20;99.90;;;;;;4997032;28;20202;-71
2022/12/02 04:55:56;;;;;;;31.40;23.43;;;6.10;99.90;;;;;;4996497;28;20185;-71
2022/12/02 04:58:22;;;;;;;28.83;19.83;;;6.00;99.90;;;;;;4996760;28;20204;-71
2022/12/02 05:00:47;;;;;;;29.83;21.47;;;6.10;99.90;;;;;;4995719;28;20263;-71
2022/12/02 05:03:13;;;;;;;37.47;25.50;;;6.20;99.90;;;;;;4996807;28;20182;-71
2022/12/02 05:05:38;;;;;;;35.63;24.90;;;6.50;99.90;;;;;;4996921;28;20629;-71
2022/12/02 05:08:04;;;;;;;37.83;26.77;;;6.40;99.90;;;;;;4996905;28;20260;-71
2022/12/02 05:10:30;;;;;;;40.53;24.90;;;6.30;99.90;;;;;;4994328;28;20193;-71
2022/12/02 05:12:56;;;;;;;34.80;24.13;;;6.40;99.90;;;;;;4996422;28;20600;-71
2022/12/02 05:15:21;;;;;;;35.10;25.03;;;6.30;99.90;;;;;;4996630;28;20873;-71
2022/12/02 05:17:47;;;;;;;27.20;20.87;;;6.10;99.90;;;;;;4996956;28;20168;-71
2022/12/02 05:20:13;;;;;;;32.40;21.80;;;6.00;99.90;;;;;;4996613;28;20165;-71
2022/12/02 05:22:39;;;;;;;31.77;22.00;;;5.90;99.90;;;;;;4996504;28;20522;-71
2022/12/02 05:25:05;;;;;;;32.07;22.97;;;5.90;99.90;;;;;;4996161;28;20196;-71
2022/12/02 05:27:31;;;;;;;35.77;22.20;;;6.00;99.90;;;;;;4996214;28;20408;-71
2022/12/02 05:29:56;;;;;;;30.23;21.47;;;5.90;99.90;;;;;;4996605;28;20405;-71
2022/12/02 05:32:22;;;;;;;31.50;22.70;;;5.90;99.90;;;;;;4996288;28;20395;-71
2022/12/02 05:34:48;;;;;;;34.50;24.10;;;5.90;99.90;;;;;;4996534;28;20689;-71
2022/12/02 05:37:13;;;;;;;31.60;21.53;;;6.00;99.90;;;;;;4996416;28;20183;-71
2022/12/02 05:39:39;;;;;;;34.20;23.80;;;6.10;99.90;;;;;;4996225;28;20275;-71
2022/12/02 05:42:10;;;;;;;33.53;24.00;;;6.00;99.90;;;;;;4994690;28;20200;-71
2022/12/02 05:44:37;;;;;;;31.83;22.17;;;5.90;99.90;;;;;;4995936;28;20213;-71
2022/12/02 05:47:09;;;;;;;37.77;25.50;;;6.20;99.90;;;;;;4976788;28;20432;-71
2022/12/02 05:49:36;;;;;;;30.77;20.83;;;6.40;99.90;;;;;;4978509;28;20809;-71
2022/12/02 05:52:14;;;;;;;33.47;21.67;;;6.40;99.90;;;;;;4978102;28;20409;-71
2022/12/02 05:54:40;;;;;;;28.90;21.23;;;6.50;99.90;;;;;;4977022;28;20442;-71
2022/12/02 05:57:06;;;;;;;32.20;20.40;;;6.50;99.90;;;;;;4977120;28;20515;-72
2022/12/02 05:59:31;;;;;;;28.37;20.30;;;6.70;99.90;;;;;;4976991;28;20173;-72
2022/12/02 06:01:58;;;;;;;32.20;21.47;;;6.50;99.90;;;;;;4990009;28;20431;-71
2022/12/02 06:04:30;;;;;;;34.90;21.57;;;6.60;99.90;;;;;;4996535;28;20598;-71
2022/12/02 06:07:00;;;;;;;32.30;21.27;;;6.20;99.90;;;;;;4995776;28;20396;-71
2022/12/02 06:09:29;;;;;;;51.13;40.47;;;6.10;99.90;;;;;;4996315;28;20877;-71
2022/12/02 06:11:55;;;;;;;33.03;24.17;;;6.20;99.90;;;;;;4994690;28;20779;-71
2022/12/02 06:14:24;;;;;;;31.73;23.20;;;6.40;99.90;;;;;;4995536;28;20559;-72
2022/12/02 06:16:57;;;;;;;32.10;22.97;;;6.70;99.90;;;;;;4995700;28;20421;-71
2022/12/02 06:19:29;;;;;;;35.17;24.63;;;6.80;99.90;;;;;;4995814;28;20394;-71
2022/12/02 06:21:58;;;;;;;31.80;23.43;;;6.80;99.90;;;;;;4994279;28;20412;-71
2022/12/02 06:24:30;;;;;;;99.67;61.10;;;6.70;99.90;;;;;;4995877;28;20488;-71
2022/12/02 06:26:59;;;;;;;48.67;32.77;;;6.80;99.90;;;;;;4995162;28;20407;-71
2022/12/02 06:29:27;;;;;;;52.87;35.97;;;6.80;99.90;;;;;;4995117;28;20448;-70
2022/12/02 06:31:53;;;;;;;99.70;63.63;;;6.60;99.90;;;;;;4995437;28;20486;-71
2022/12/02 06:34:38;;;;;;;35.10;25.80;;;6.80;99.90;;;;;;4995022;28;20527;-71
2022/12/02 06:37:17;;;;;;;37.77;26.07;;;6.80;99.90;;;;;;4991320;28;20432;-73
2022/12/02 06:39:45;;;;;;;29.90;20.40;;;6.70;99.90;;;;;;4988395;28;20529;-70
2022/12/02 06:42:27;;;;;;;29.73;20.87;;;6.60;99.90;;;;;;4993736;28;20429;-69
2022/12/02 06:45:04;;;;;;;38.37;27.00;;;6.40;99.90;;;;;;4993971;28;20890;-71
2022/12/02 06:47:36;;;;;;;33.30;20.20;;;6.20;99.90;;;;;;4995128;28;20443;-71
2022/12/02 06:50:04;;;;;;;27.03;20.40;;;6.20;99.90;;;;;;4995544;28;20481;-73
2022/12/02 06:52:48;;;;;;;31.03;22.60;;;6.20;99.90;;;;;;4993511;28;20420;-71
2022/12/02 06:55:35;;;;;;;34.10;25.87;;;6.40;99.90;;;;;;4993803;28;20934;-70
2022/12/02 06:58:24;;;;;;;32.37;21.33;;;6.50;99.90;;;;;;4992812;28;20469;-71
2022/12/02 07:00:49;;;;;;;31.97;21.80;;;6.30;99.90;;;;;;4994783;28;20394;-71
2022/12/02 07:03:31;;;;;;;31.57;22.20;;;6.20;99.90;;;;;;4994989;28;20401;-71
2022/12/02 07:06:21;;;;;;;25.33;18.90;;;6.30;99.90;;;;;;4994998;28;20606;-70
2022/12/02 07:08:47;;;;;;;25.87;21.17;;;6.30;99.90;;;;;;4994875;28;20484;-71
2022/12/02 07:11:50;;;;;;;28.50;19.97;;;6.30;99.90;;;;;;4994331;28;20511;-71
2022/12/02 07:14:37;;;;;;;28.87;19.97;;;6.50;99.90;;;;;;4974270;28;20688;-71
2022/12/02 07:17:13;;;;;;;35.50;22.27;;;6.40;99.90;;;;;;4974666;28;20415;-71
2022/12/02 07:19:43;;;;;;;28.60;20.47;;;6.40;99.90;;;;;;4975375;28;20790;-71
2022/12/02 07:22:54;;;;;;;37.13;23.57;;;6.30;99.90;;;;;;4974704;28;20537;-70
2022/12/02 07:25:36;;;;;;;29.40;21.67;;;6.30;99.90;;;;;;4968211;28;21013;-71
2022/12/02 07:28:17;;;;;;;38.07;24.00;;;6.50;99.90;;;;;;4974512;28;20397;-71
2022/12/02 07:30:43;;;;;;;34.00;23.30;;;6.60;99.90;;;;;;4974682;28;20428;-70
2022/12/02 07:33:08;;;;;;;30.23;20.87;;;6.50;99.90;;;;;;4974684;28;20405;-70
2022/12/02 07:35:34;;;;;;;34.87;24.47;;;6.60;99.90;;;;;;4974297;28;20432;-70
2022/12/02 07:37:59;;;;;;;32.17;23.03;;;6.70;99.90;;;;;;4974639;28;20253;-70
2022/12/02 07:40:25;;;;;;;38.33;24.13;;;6.50;99.90;;;;;;4974895;28;20173;-70
2022/12/02 07:42:51;;;;;;;32.07;21.60;;;6.30;99.90;;;;;;4984428;28;20675;-71
2022/12/02 07:45:19;;;;;;;39.57;24.00;;;6.50;99.90;;;;;;4993725;28;20203;-70
2022/12/02 07:47:45;;;;;;;47.03;26.57;;;6.30;99.90;;;;;;4994528;28;20178;-71
2022/12/02 07:50:13;;;;;;;33.27;24.10;;;6.00;99.90;;;;;;4994486;28;20443;-71
2022/12/02 07:52:39;;;;;;;35.97;22.40;;;6.00;99.90;;;;;;4993634;28;20440;-71
2022/12/02 07:55:05;;;;;;;35.23;24.23;;;6.10;99.90;;;;;;4994078;28;20461;-70
2022/12/02 07:57:30;;;;;;;38.27;25.70;;;6.10;99.90;;;;;;4993393;28;20181;-70
2022/12/02 07:59:56;;;;;;;45.93;29.20;;;6.00;99.90;;;;;;4993751;28;20419;-69
2022/12/02 08:02:22;;;;;;;41.40;27.27;;;6.10;99.90;;;;;;4993299;28;20192;-71
2022/12/02 08:04:47;;;;;;;35.70;24.10;;;6.20;99.90;;;;;;4993375;28;20201;-70
2022/12/02 08:07:13;;;;;;;36.87;24.87;;;6.20;99.90;;;;;;4993643;28;20171;-71
2022/12/02 08:09:39;;;;;;;36.73;26.00;;;6.20;99.90;;;;;;4992273;28;20169;-71
2022/12/02 08:12:04;;;;;;;43.87;25.80;;;6.20;99.90;;;;;;4992624;28;20166;-71
2022/12/02 08:14:30;;;;;;;44.50;28.80;;;6.20;99.90;;;;;;4993362;28;20189;-71
2022/12/02 08:16:56;;;;;;;36.97;24.50;;;6.30;99.90;;;;;;4993178;28;20454;-71
2022/12/02 08:19:22;;;;;;;39.50;25.90;;;6.10;99.90;;;;;;4992618;28;20177;-71
2022/12/02 08:21:48;;;;;;;36.80;23.67;;;6.00;99.90;;;;;;4993697;28;20173;-71
2022/12/02 08:24:13;;;;;;;41.70;24.23;;;6.10;99.90;;;;;;4993733;28;20823;-70
2022/12/02 08:26:39;;;;;;;39.60;26.10;;;6.10;99.90;;;;;;4993513;28;20669;-71
2022/12/02 08:29:05;;;;;;;36.43;24.20;;;6.00;99.90;;;;;;4992247;28;20168;-71
2022/12/02 08:31:30;;;;;;;39.33;25.93;;;6.00;99.90;;;;;;4994078;28;20177;-71
2022/12/02 08:33:56;;;;;;;39.93;25.00;;;5.90;99.90;;;;;;4993346;28;20219;-71
2022/12/02 08:36:21;;;;;;;40.07;25.53;;;5.90;99.90;;;;;;4993287;28;20574;-71
2022/12/02 08:38:48;;;;;;;35.67;22.33;;;5.90;99.90;;;;;;4993269;28;20191;-72
2022/12/02 08:41:15;;;;;;;39.60;24.30;;;5.90;99.90;;;;;;4993593;28;20173;-71
2022/12/02 08:43:41;;;;;;;40.23;25.17;;;5.90;99.90;;;;;;4992805;28;20456;-71
2022/12/02 08:46:07;;;;;;;36.87;25.30;;;6.00;99.90;;;;;;4993219;28;20405;-72
2022/12/02 08:48:33;;;;;;;33.93;23.00;;;5.80;99.90;;;;;;4993188;28;20438;-71
2022/12/02 08:50:58;;;;;;;42.60;27.27;;;5.70;99.90;;;;;;4993096;28;20432;-71
2022/12/02 08:53:24;;;;;;;33.07;21.33;;;5.90;99.90;;;;;;4993258;28;20275;-71
2022/12/02 08:55:50;;;;;;;35.67;24.27;;;6.20;99.90;;;;;;4993451;28;20216;-71
2022/12/02 08:58:15;;;;;;;31.33;21.77;;;6.10;99.90;;;;;;4993263;28;20170;-71
2022/12/02 09:00:41;;;;;;;37.60;23.83;;;6.10;99.90;;;;;;4992137;28;20180;-70
2022/12/02 09:03:08;;;;;;;42.20;25.30;;;6.30;99.90;;;;;;4993025;28;20559;-70
2022/12/02 09:05:35;;;;;;;32.00;22.00;;;6.40;99.90;;;;;;4992559;28;20239;-71
2022/12/02 09:08:02;;;;;;;37.63;23.70;;;6.60;99.90;;;;;;4994572;28;20884;-71
2022/12/02 09:10:27;;;;;;;29.00;20.63;;;6.50;99.90;;;;;;4996647;28;20408;-71
2022/12/02 09:12:53;;;;;;;32.03;21.17;;;6.40;99.90;;;;;;4996003;28;20438;-70
2022/12/02 09:15:20;;;;;;;30.57;21.10;;;6.60;99.90;;;;;;4995726;28;20211;-71
2022/12/02 09:17:46;;;;;;;36.57;24.27;;;6.70;99.90;;;;;;4996951;28;20270;-71
2022/12/02 09:20:12;;;;;;;35.97;22.07;;;6.50;99.90;;;;;;4997081;28;20423;-71
2022/12/02 09:22:38;;;;;;;33.07;21.47;;;6.40;99.90;;;;;;4996607;28;20416;-69
2022/12/02 09:25:04;;;;;;;28.37;18.57;;;6.30;99.90;;;;;;4995400;28;20554;-69
2022/12/02 09:27:30;;;;;;;28.10;20.63;;;6.20;99.90;;;;;;4996814;28;20169;-69
2022/12/02 09:29:55;;;;;;;29.93;20.33;;;6.20;99.90;;;;;;4991066;28;20433;-70
2022/12/02 09:32:21;;;;;;;28.70;20.03;;;6.00;99.90;;;;;;4985353;28;20182;-69
2022/12/02 09:34:46;;;;;;;31.07;22.33;;;6.10;99.90;;;;;;4996760;28;20193;-69
2022/12/02 09:37:12;;;;;;;23.30;16.30;;;6.10;99.90;;;;;;4995688;28;20228;-69
2022/12/02 09:39:38;;;;;;;26.73;18.73;;;6.10;99.90;;;;;;4996555;28;20200;-69
2022/12/02 09:42:04;;;;;;;22.40;16.23;;;6.20;99.90;;;;;;4996695;28;20200;-71
2022/12/02 09:44:30;;;;;;;20.43;15.80;;;6.10;99.90;;;;;;5026893;23;20260;-71
2022/12/02 09:46:56;;;;;;;25.13;15.90;;;6.20;99.90;;;;;;5034864;28;20473;-71
2022/12/02 09:49:22;;;;;;;18.30;13.83;;;6.20;99.90;;;;;;5035281;28;20490;-70
2022/12/02 09:51:48;;;;;;;19.10;13.97;;;6.20;99.90;;;;;;5035517;28;20174;-72
2022/12/02 09:54:15;;;;;;;23.87;15.80;;;6.30;99.90;;;;;;5035304;28;20199;-70
2022/12/02 09:56:41;;;;;;;20.17;15.20;;;6.30;99.90;;;;;;5035338;28;20485;-73
2022/12/02 09:59:14;;;;;;;20.17;13.57;;;6.50;99.90;;;;;;5035256;28;20434;-70
2022/12/02 10:01:42;;;;;;;18.27;14.30;;;6.60;99.90;;;;;;5023210;28;20161;-72
2022/12/02 10:04:10;;;;;;;18.30;13.60;;;6.50;99.90;;;;;;4997408;28;20511;-70
2022/12/02 10:06:36;;;;;;;18.60;13.67;;;6.30;99.90;;;;;;5015241;28;20410;-70
2022/12/02 10:09:01;;;;;;;14.40;11.30;;;6.40;99.90;;;;;;5015276;28;20406;-71
2022/12/02 10:11:33;;;;;;;18.00;13.53;;;6.30;99.90;;;;;;5015172;28;20399;-71
2022/12/02 10:14:01;;;;;;;19.30;13.07;;;6.20;99.90;;;;;;5013693;28;20189;-71
2022/12/02 10:16:27;;;;;;;15.90;13.27;;;6.20;99.90;;;;;;4997363;28;20941;-71
2022/12/02 10:18:58;;;;;;;16.50;12.33;;;6.10;99.90;;;;;;5014311;28;20423;-71
2022/12/02 10:21:24;;;;;;;14.70;11.20;;;6.00;99.90;;;;;;5014011;28;20928;-71
2022/12/02 10:23:59;;;;;;;17.77;13.03;;;6.00;99.90;;;;;;5015047;28;20446;-71
2022/12/02 10:26:25;;;;;;;16.77;12.03;;;6.20;99.90;;;;;;5014299;28;20231;-71
2022/12/02 10:29:01;;;;;;;17.87;13.10;;;6.30;99.90;;;;;;5024777;28;20819;-71
2022/12/02 10:31:27;;;;;;;18.27;12.77;;;6.10;99.90;;;;;;5015061;28;20413;-71
2022/12/02 10:33:59;;;;;;;19.30;12.60;;;5.80;99.90;;;;;;5014824;28;20423;-73
2022/12/02 10:36:38;;;;;;;19.57;13.53;;;6.00;99.90;;;;;;5015105;28;20246;-72
2022/12/02 10:39:22;;;;;;;18.83;12.10;;;6.20;99.90;;;;;;5015311;28;20395;-72
2022/12/02 10:42:03;;;;;;;15.63;11.53;;;6.10;99.90;;;;;;5014050;28;20406;-73
2022/12/02 10:44:30;;;;;;;17.10;11.97;;;6.10;99.90;;;;;;5014378;28;20551;-71
2022/12/02 10:47:10;;;;;;;16.87;13.07;;;5.90;99.90;;;;;;5014691;28;20402;-73
2022/12/02 10:49:36;;;;;;;16.27;12.90;;;6.00;99.90;;;;;;5013560;28;20412;-72
2022/12/02 10:52:10;;;;;;;17.27;11.80;;;5.90;99.90;;;;;;5014297;28;20400;-71
2022/12/02 10:54:38;;;;;;;19.00;11.93;;;6.00;99.90;;;;;;5014339;28;20521;-71
2022/12/02 10:57:05;;;;;;;16.73;11.53;;;5.90;99.90;;;;;;5013876;28;20481;-70
2022/12/02 10:59:32;;;;;;;14.73;10.60;;;5.80;99.90;;;;;;5014232;28;20403;-71
2022/12/02 11:01:59;;;;;;;14.47;10.93;;;5.80;99.90;;;;;;5013299;28;20525;-74
2022/12/02 11:04:28;;;;;;;13.93;10.40;;;5.90;99.90;;;;;;5014168;28;20458;-72
2022/12/02 11:06:54;;;;;;;13.70;10.20;;;5.90;99.90;;;;;;5012903;28;20430;-73
2022/12/02 11:09:23;;;;;;;13.33;11.27;;;6.10;99.90;;;;;;5014225;28;20413;-72
2022/12/02 11:11:49;;;;;;;15.47;11.13;;;6.10;99.90;;;;;;5014293;28;20252;-72
2022/12/02 11:14:39;;;;;;;11.70;8.93;;;6.10;99.90;;;;;;5014280;28;20423;-72
2022/12/02 11:17:13;;;;;;;15.70;10.23;;;5.90;99.90;;;;;;5013362;28;20434;-72
2022/12/02 11:19:45;;;;;;;14.03;9.03;;;5.90;99.90;;;;;;5014317;28;20922;-72
2022/12/02 11:23:02;;;;;;;11.00;8.20;;;5.90;99.90;;;;;;5013111;28;20933;-71
2022/12/02 11:25:42;;;;;;;12.30;9.80;;;6.00;99.90;;;;;;4960067;28;20523;-71
2022/12/02 11:28:17;;;;;;;10.60;8.63;;;6.20;99.90;;;;;;5014839;28;20493;-72
2022/12/02 11:30:44;;;;;;;11.27;9.93;;;6.10;99.90;;;;;;5012648;28;20430;-72
2022/12/02 11:33:11;;;;;;;12.70;9.77;;;6.10;99.90;;;;;;5013783;28;20531;-72
2022/12/02 11:36:10;;;;;;;11.77;9.23;;;6.00;99.90;;;;;;5013331;28;20426;-72
2022/12/02 11:39:00;;;;;;;11.80;8.73;;;6.20;99.90;;;;;;5013696;28;20423;-73
2022/12/02 11:41:46;;;;;;;12.40;8.90;;;6.30;99.90;;;;;;5013846;28;20392;-73
2022/12/02 11:44:29;;;;;;;10.60;9.20;;;6.30;99.90;;;;;;5012894;28;20561;-71
2022/12/02 11:46:55;;;;;;;12.67;9.40;;;6.20;99.90;;;;;;5013566;28;20404;-71
2022/12/02 11:49:27;;;;;;;11.63;9.73;;;6.30;99.90;;;;;;4995878;28;20783;-72
2022/12/02 11:52:23;;;;;;;11.97;9.43;;;6.10;99.90;;;;;;5013762;28;20400;-72
2022/12/02 11:54:54;;;;;;;12.50;8.70;;;6.20;99.90;;;;;;4993579;28;20574;-72
2022/12/02 11:57:40;;;;;;;10.63;8.63;;;6.20;99.90;;;;;;5013291;28;20419;-71
2022/12/02 12:00:29;;;;;;;10.20;8.57;;;6.30;99.90;;;;;;5012888;28;20401;-71
2022/12/02 12:03:11;;;;;;;12.53;9.50;;;6.30;99.90;;;;;;4995512;28;20408;-70
2022/12/02 12:05:38;;;;;;;12.30;8.63;;;6.30;99.90;;;;;;5012733;28;20472;-69
2022/12/02 12:08:04;;;;;;;10.20;8.43;;;6.30;99.90;;;;;;5030868;28;20413;-72
2022/12/02 12:10:38;;;;;;;10.13;8.93;;;6.50;99.90;;;;;;5026860;28;20408;-70
2022/12/02 12:13:23;;;;;;;10.40;8.07;;;6.40;99.90;;;;;;5032347;28;20235;-70
2022/12/02 12:15:56;;;;;;;10.23;8.40;;;6.50;99.90;;;;;;5032762;28;20421;-71
2022/12/02 12:18:45;;;;;;;12.47;9.67;;;6.50;99.90;;;;;;5032363;28;20397;-70
2022/12/02 12:21:35;;;;;;;11.40;9.00;;;6.40;99.90;;;;;;5032709;28;20794;-70
2022/12/02 12:26:52;;;;;;;9.80;8.13;;;6.30;99.90;;;;;;5020548;28;20423;-71
2022/12/02 12:29:21;;;;;;;10.90;8.97;;;6.30;99.90;;;;;;5013251;28;20402;-71
2022/12/02 12:31:47;;;;;;;14.57;9.30;;;6.20;99.90;;;;;;5013037;28;20408;-71
2022/12/02 12:34:17;;;;;;;11.63;8.70;;;6.20;99.90;;;;;;5013003;28;20425;-71
2022/12/02 12:36:44;;;;;;;12.07;7.80;;;6.30;99.90;;;;;;5013793;28;20393;-71
2022/12/02 12:39:11;;;;;;;9.43;7.93;;;6.10;99.90;;;;;;5012790;28;20458;-70
2022/12/02 12:41:37;;;;;;;9.37;8.13;;;6.00;99.90;;;;;;5011676;28;20465;-72
2022/12/02 12:44:03;;;;;;;11.30;8.73;;;6.00;99.90;;;;;;5016208;28;20514;-72
2022/12/02 12:46:29;;;;;;;8.40;7.27;;;6.10;99.90;;;;;;5016717;28;20403;-70
2022/12/02 12:48:54;;;;;;;7.50;6.70;;;6.10;99.90;;;;;;5016794;28;21023;-72
2022/12/02 12:51:20;;;;;;;7.50;6.80;;;6.20;99.90;;;;;;5016900;28;20188;-71
2022/12/02 12:53:46;;;;;;;8.17;6.60;;;6.20;99.90;;;;;;5016987;28;20188;-71
2022/12/02 12:56:11;;;;;;;6.47;5.73;;;6.00;99.90;;;;;;5016265;28;20247;-71